sensor_id;sensor_type;location;lat;lon;timestamp;P1;durP1;ratioP1;P2;durP2;ratioP2
72060;SDS011;59925;52.136;5.420;2023-08-24T00:01:31;5.57;;;3.78;;
72060;SDS011;59925;52.136;5.420;2023-08-24T00:03:57;6.05;;;3.30;;
72060;SDS011;59925;52.136;5.420;2023-08-24T00:06:24;7.30;;;3.67;;
72060;SDS011;59925;52.136;5.420;2023-08-24T00:08:50;4.72;;;3.42;;
72060;SDS011;59925;52.136;5.420;2023-08-24T00:11:17;6.07;;;3.63;;
72060;SDS011;59925;52.136;5.420;2023-08-24T00:13:44;4.40;;;3.40;;
72060;SDS011;59925;52.136;5.420;2023-08-24T00:16:17;6.22;;;3.50;;
72060;SDS011;59925;52.136;5.420;2023-08-24T00:18:45;9.57;;;3.57;;
72060;SDS011;59925;52.136;5.420;2023-08-24T00:21:13;5.55;;;4.00;;
72060;SDS011;59925;52.136;5.420;2023-08-24T00:23:43;8.02;;;4.00;;
72060;SDS011;59925;52.136;5.420;2023-08-24T00:26:10;6.50;;;4.10;;
72060;SDS011;59925;52.136;5.420;2023-08-24T00:28:36;7.70;;;4.18;;
72060;SDS011;59925;52.136;5.420;2023-08-24T00:31:03;7.57;;;3.83;;
72060;SDS011;59925;52.136;5.420;2023-08-24T00:33:29;6.30;;;4.05;;
72060;SDS011;59925;52.136;5.420;2023-08-24T00:35:59;8.07;;;3.83;;
72060;SDS011;59925;52.136;5.420;2023-08-24T00:38:27;6.10;;;3.85;;
72060;SDS011;59925;52.136;5.420;2023-08-24T00:40:55;8.45;;;4.25;;
72060;SDS011;59925;52.136;5.420;2023-08-24T00:43:22;7.10;;;3.80;;
72060;SDS011;59925;52.136;5.420;2023-08-24T00:45:50;5.68;;;4.30;;
72060;SDS011;59925;52.136;5.420;2023-08-24T00:48:18;6.57;;;4.20;;
72060;SDS011;59925;52.136;5.420;2023-08-24T00:50:45;7.80;;;3.92;;
72060;SDS011;59925;52.136;5.420;2023-08-24T00:53:12;7.18;;;4.40;;
72060;SDS011;59925;52.136;5.420;2023-08-24T00:55:39;9.30;;;4.30;;
72060;SDS011;59925;52.136;5.420;2023-08-24T00:58:05;8.25;;;4.25;;
72060;SDS011;59925;52.136;5.420;2023-08-24T01:00:32;10.18;;;4.70;;
72060;SDS011;59925;52.136;5.420;2023-08-24T01:02:59;6.15;;;3.92;;
72060;SDS011;59925;52.136;5.420;2023-08-24T01:05:26;5.68;;;4.30;;
72060;SDS011;59925;52.136;5.420;2023-08-24T01:07:52;7.90;;;4.20;;
72060;SDS011;59925;52.136;5.420;2023-08-24T01:10:19;6.65;;;4.32;;
72060;SDS011;59925;52.136;5.420;2023-08-24T01:12:50;7.55;;;3.70;;
72060;SDS011;59925;52.136;5.420;2023-08-24T01:16:13;5.32;;;3.67;;
72060;SDS011;59925;52.136;5.420;2023-08-24T01:18:24;5.43;;;3.90;;
72060;SDS011;59925;52.136;5.420;2023-08-24T01:20:53;6.17;;;3.43;;
72060;SDS011;59925;52.136;5.420;2023-08-24T01:28:36;5.88;;;3.50;;
72060;SDS011;59925;52.136;5.420;2023-08-24T01:31:04;10.73;;;4.07;;
72060;SDS011;59925;52.136;5.420;2023-08-24T01:33:31;5.83;;;3.43;;
72060;SDS011;59925;52.136;5.420;2023-08-24T01:35:58;8.77;;;3.88;;
72060;SDS011;59925;52.136;5.420;2023-08-24T01:38:24;5.95;;;4.20;;
72060;SDS011;59925;52.136;5.420;2023-08-24T01:40:58;5.53;;;3.70;;
72060;SDS011;59925;52.136;5.420;2023-08-24T01:43:28;7.70;;;4.30;;
72060;SDS011;59925;52.136;5.420;2023-08-24T01:46:09;6.43;;;4.03;;
72060;SDS011;59925;52.136;5.420;2023-08-24T01:48:39;5.28;;;4.07;;
72060;SDS011;59925;52.136;5.420;2023-08-24T01:51:07;4.97;;;4.00;;
72060;SDS011;59925;52.136;5.420;2023-08-24T01:53:34;7.05;;;4.57;;
72060;SDS011;59925;52.136;5.420;2023-08-24T01:56:01;7.80;;;4.30;;
72060;SDS011;59925;52.136;5.420;2023-08-24T01:58:28;6.83;;;3.97;;
72060;SDS011;59925;52.136;5.420;2023-08-24T02:00:54;6.40;;;4.32;;
72060;SDS011;59925;52.136;5.420;2023-08-24T02:03:21;7.80;;;4.13;;
72060;SDS011;59925;52.136;5.420;2023-08-24T02:05:47;6.20;;;4.47;;
72060;SDS011;59925;52.136;5.420;2023-08-24T02:08:14;5.55;;;3.97;;
72060;SDS011;59925;52.136;5.420;2023-08-24T02:10:40;6.77;;;4.57;;
72060;SDS011;59925;52.136;5.420;2023-08-24T02:13:07;6.10;;;4.18;;
72060;SDS011;59925;52.136;5.420;2023-08-24T02:15:33;5.00;;;4.00;;
72060;SDS011;59925;52.136;5.420;2023-08-24T02:18:00;6.20;;;4.20;;
72060;SDS011;59925;52.136;5.420;2023-08-24T02:20:26;8.20;;;4.50;;
72060;SDS011;59925;52.136;5.420;2023-08-24T02:22:53;8.40;;;4.60;;
72060;SDS011;59925;52.136;5.420;2023-08-24T02:25:19;6.68;;;4.45;;
72060;SDS011;59925;52.136;5.420;2023-08-24T02:27:46;9.45;;;5.38;;
72060;SDS011;59925;52.136;5.420;2023-08-24T02:30:14;7.15;;;4.53;;
72060;SDS011;59925;52.136;5.420;2023-08-24T02:32:41;8.18;;;4.57;;
72060;SDS011;59925;52.136;5.420;2023-08-24T02:35:08;7.40;;;5.00;;
72060;SDS011;59925;52.136;5.420;2023-08-24T02:37:34;7.57;;;4.82;;
72060;SDS011;59925;52.136;5.420;2023-08-24T02:40:01;6.68;;;4.60;;
72060;SDS011;59925;52.136;5.420;2023-08-24T02:42:30;7.22;;;4.90;;
72060;SDS011;59925;52.136;5.420;2023-08-24T02:44:57;7.93;;;5.10;;
72060;SDS011;59925;52.136;5.420;2023-08-24T02:47:24;7.70;;;5.37;;
72060;SDS011;59925;52.136;5.420;2023-08-24T02:49:50;9.02;;;5.00;;
72060;SDS011;59925;52.136;5.420;2023-08-24T02:52:18;7.95;;;4.72;;
72060;SDS011;59925;52.136;5.420;2023-08-24T02:54:44;9.75;;;5.57;;
72060;SDS011;59925;52.136;5.420;2023-08-24T02:57:11;8.25;;;5.85;;
72060;SDS011;59925;52.136;5.420;2023-08-24T02:59:37;7.13;;;5.40;;
72060;SDS011;59925;52.136;5.420;2023-08-24T03:02:05;9.75;;;5.38;;
72060;SDS011;59925;52.136;5.420;2023-08-24T03:04:31;9.57;;;5.20;;
72060;SDS011;59925;52.136;5.420;2023-08-24T03:06:59;7.30;;;5.63;;
72060;SDS011;59925;52.136;5.420;2023-08-24T03:09:26;9.70;;;5.63;;
72060;SDS011;59925;52.136;5.420;2023-08-24T03:11:52;7.80;;;5.30;;
72060;SDS011;59925;52.136;5.420;2023-08-24T03:14:19;9.52;;;5.68;;
72060;SDS011;59925;52.136;5.420;2023-08-24T03:16:45;8.77;;;5.38;;
72060;SDS011;59925;52.136;5.420;2023-08-24T03:19:12;7.22;;;5.07;;
72060;SDS011;59925;52.136;5.420;2023-08-24T03:21:40;11.05;;;5.63;;
72060;SDS011;59925;52.136;5.420;2023-08-24T03:24:07;8.97;;;5.50;;
72060;SDS011;59925;52.136;5.420;2023-08-24T03:26:33;9.45;;;5.28;;
72060;SDS011;59925;52.136;5.420;2023-08-24T03:29:00;8.68;;;5.57;;
72060;SDS011;59925;52.136;5.420;2023-08-24T03:31:26;7.53;;;5.22;;
72060;SDS011;59925;52.136;5.420;2023-08-24T03:33:53;9.25;;;5.18;;
72060;SDS011;59925;52.136;5.420;2023-08-24T03:36:19;9.03;;;5.63;;
72060;SDS011;59925;52.136;5.420;2023-08-24T03:38:46;8.30;;;5.13;;
72060;SDS011;59925;52.136;5.420;2023-08-24T03:41:12;10.63;;;6.47;;
72060;SDS011;59925;52.136;5.420;2023-08-24T03:43:39;10.00;;;5.35;;
72060;SDS011;59925;52.136;5.420;2023-08-24T03:46:05;8.95;;;5.63;;
72060;SDS011;59925;52.136;5.420;2023-08-24T03:48:32;9.53;;;6.10;;
72060;SDS011;59925;52.136;5.420;2023-08-24T03:50:59;11.45;;;6.20;;
72060;SDS011;59925;52.136;5.420;2023-08-24T03:53:25;9.40;;;5.53;;
72060;SDS011;59925;52.136;5.420;2023-08-24T03:55:52;10.50;;;6.00;;
72060;SDS011;59925;52.136;5.420;2023-08-24T03:58:18;9.98;;;6.32;;
72060;SDS011;59925;52.136;5.420;2023-08-24T04:00:45;10.43;;;5.83;;
72060;SDS011;59925;52.136;5.420;2023-08-24T04:03:12;9.38;;;5.30;;
72060;SDS011;59925;52.136;5.420;2023-08-24T04:05:39;7.57;;;5.50;;
72060;SDS011;59925;52.136;5.420;2023-08-24T04:08:06;8.00;;;6.15;;
72060;SDS011;59925;52.136;5.420;2023-08-24T04:10:33;8.70;;;5.32;;
72060;SDS011;59925;52.136;5.420;2023-08-24T04:13:00;12.83;;;6.80;;
72060;SDS011;59925;52.136;5.420;2023-08-24T04:15:26;9.20;;;6.03;;
72060;SDS011;59925;52.136;5.420;2023-08-24T04:17:53;10.40;;;7.13;;
72060;SDS011;59925;52.136;5.420;2023-08-24T04:20:20;10.32;;;6.05;;
72060;SDS011;59925;52.136;5.420;2023-08-24T04:22:47;8.88;;;5.80;;
72060;SDS011;59925;52.136;5.420;2023-08-24T04:25:13;11.97;;;5.83;;
72060;SDS011;59925;52.136;5.420;2023-08-24T04:27:40;8.68;;;5.13;;
72060;SDS011;59925;52.136;5.420;2023-08-24T04:30:07;12.68;;;6.80;;
72060;SDS011;59925;52.136;5.420;2023-08-24T04:32:37;10.13;;;5.97;;
72060;SDS011;59925;52.136;5.420;2023-08-24T04:35:04;11.02;;;6.20;;
72060;SDS011;59925;52.136;5.420;2023-08-24T04:37:31;8.83;;;5.90;;
72060;SDS011;59925;52.136;5.420;2023-08-24T04:39:57;11.35;;;5.30;;
72060;SDS011;59925;52.136;5.420;2023-08-24T04:42:24;9.90;;;5.85;;
72060;SDS011;59925;52.136;5.420;2023-08-24T04:44:51;10.38;;;5.72;;
72060;SDS011;59925;52.136;5.420;2023-08-24T04:47:18;7.32;;;5.60;;
72060;SDS011;59925;52.136;5.420;2023-08-24T04:49:44;10.10;;;5.90;;
72060;SDS011;59925;52.136;5.420;2023-08-24T04:52:11;10.15;;;6.22;;
72060;SDS011;59925;52.136;5.420;2023-08-24T04:54:37;9.73;;;6.10;;
72060;SDS011;59925;52.136;5.420;2023-08-24T04:57:04;9.43;;;5.75;;
72060;SDS011;59925;52.136;5.420;2023-08-24T04:59:30;8.63;;;5.70;;
72060;SDS011;59925;52.136;5.420;2023-08-24T05:01:57;9.20;;;6.10;;
72060;SDS011;59925;52.136;5.420;2023-08-24T05:04:25;10.70;;;6.70;;
72060;SDS011;59925;52.136;5.420;2023-08-24T05:06:51;9.02;;;5.97;;
72060;SDS011;59925;52.136;5.420;2023-08-24T05:09:18;9.90;;;6.10;;
72060;SDS011;59925;52.136;5.420;2023-08-24T05:11:44;12.13;;;6.43;;
72060;SDS011;59925;52.136;5.420;2023-08-24T05:14:10;9.97;;;6.43;;
72060;SDS011;59925;52.136;5.420;2023-08-24T05:16:37;10.77;;;6.20;;
72060;SDS011;59925;52.136;5.420;2023-08-24T05:19:04;9.48;;;6.30;;
72060;SDS011;59925;52.136;5.420;2023-08-24T05:21:30;9.48;;;6.35;;
72060;SDS011;59925;52.136;5.420;2023-08-24T05:23:57;9.45;;;6.03;;
72060;SDS011;59925;52.136;5.420;2023-08-24T05:26:23;7.90;;;6.10;;
72060;SDS011;59925;52.136;5.420;2023-08-24T05:28:52;10.25;;;5.93;;
72060;SDS011;59925;52.136;5.420;2023-08-24T05:31:19;9.93;;;5.90;;
72060;SDS011;59925;52.136;5.420;2023-08-24T05:33:47;7.35;;;5.53;;
72060;SDS011;59925;52.136;5.420;2023-08-24T05:36:13;9.65;;;6.18;;
72060;SDS011;59925;52.136;5.420;2023-08-24T05:38:40;9.00;;;5.90;;
72060;SDS011;59925;52.136;5.420;2023-08-24T05:41:24;8.93;;;6.15;;
72060;SDS011;59925;52.136;5.420;2023-08-24T05:43:51;9.48;;;6.40;;
72060;SDS011;59925;52.136;5.420;2023-08-24T05:46:19;10.85;;;6.22;;
72060;SDS011;59925;52.136;5.420;2023-08-24T05:48:45;10.40;;;6.72;;
72060;SDS011;59925;52.136;5.420;2023-08-24T05:51:12;12.77;;;6.20;;
72060;SDS011;59925;52.136;5.420;2023-08-24T05:53:38;12.02;;;6.00;;
72060;SDS011;59925;52.136;5.420;2023-08-24T05:56:06;10.15;;;6.22;;
72060;SDS011;59925;52.136;5.420;2023-08-24T05:58:33;13.02;;;6.25;;
72060;SDS011;59925;52.136;5.420;2023-08-24T06:01:00;8.52;;;5.85;;
72060;SDS011;59925;52.136;5.420;2023-08-24T06:03:26;9.70;;;5.60;;
72060;SDS011;59925;52.136;5.420;2023-08-24T06:05:53;8.18;;;5.70;;
72060;SDS011;59925;52.136;5.420;2023-08-24T06:08:20;8.45;;;5.28;;
72060;SDS011;59925;52.136;5.420;2023-08-24T06:10:46;9.25;;;5.25;;
72060;SDS011;59925;52.136;5.420;2023-08-24T06:13:13;11.00;;;5.78;;
72060;SDS011;59925;52.136;5.420;2023-08-24T06:15:40;12.63;;;5.87;;
72060;SDS011;59925;52.136;5.420;2023-08-24T06:18:06;10.27;;;6.18;;
72060;SDS011;59925;52.136;5.420;2023-08-24T06:20:33;9.88;;;6.20;;
72060;SDS011;59925;52.136;5.420;2023-08-24T06:22:59;11.18;;;6.15;;
72060;SDS011;59925;52.136;5.420;2023-08-24T06:25:26;8.55;;;5.80;;
72060;SDS011;59925;52.136;5.420;2023-08-24T06:27:52;7.90;;;5.90;;
72060;SDS011;59925;52.136;5.420;2023-08-24T06:30:19;12.13;;;6.22;;
72060;SDS011;59925;52.136;5.420;2023-08-24T06:32:45;12.70;;;6.15;;
72060;SDS011;59925;52.136;5.420;2023-08-24T06:35:12;10.18;;;6.03;;
72060;SDS011;59925;52.136;5.420;2023-08-24T06:37:41;8.75;;;5.95;;
72060;SDS011;59925;52.136;5.420;2023-08-24T06:40:08;10.47;;;5.77;;
72060;SDS011;59925;52.136;5.420;2023-08-24T06:42:35;10.27;;;6.78;;
72060;SDS011;59925;52.136;5.420;2023-08-24T06:45:02;10.40;;;6.30;;
72060;SDS011;59925;52.136;5.420;2023-08-24T06:47:28;8.18;;;6.38;;
72060;SDS011;59925;52.136;5.420;2023-08-24T06:49:55;11.98;;;6.93;;
72060;SDS011;59925;52.136;5.420;2023-08-24T06:52:22;10.17;;;7.17;;
72060;SDS011;59925;52.136;5.420;2023-08-24T06:54:48;11.23;;;7.18;;
72060;SDS011;59925;52.136;5.420;2023-08-24T06:57:19;9.73;;;6.60;;
72060;SDS011;59925;52.136;5.420;2023-08-24T06:59:46;10.10;;;6.55;;
72060;SDS011;59925;52.136;5.420;2023-08-24T07:02:12;7.97;;;7.07;;
72060;SDS011;59925;52.136;5.420;2023-08-24T07:04:39;11.97;;;6.87;;
72060;SDS011;59925;52.136;5.420;2023-08-24T07:07:06;10.85;;;7.05;;
72060;SDS011;59925;52.136;5.420;2023-08-24T07:09:33;11.10;;;8.32;;
72060;SDS011;59925;52.136;5.420;2023-08-24T07:12:00;11.63;;;7.40;;
72060;SDS011;59925;52.136;5.420;2023-08-24T07:14:26;13.07;;;7.35;;
72060;SDS011;59925;52.136;5.420;2023-08-24T07:16:53;10.90;;;8.03;;
72060;SDS011;59925;52.136;5.420;2023-08-24T07:19:19;11.50;;;7.22;;
72060;SDS011;59925;52.136;5.420;2023-08-24T07:21:46;13.98;;;8.10;;
72060;SDS011;59925;52.136;5.420;2023-08-24T07:24:13;10.52;;;7.35;;
72060;SDS011;59925;52.136;5.420;2023-08-24T07:26:40;8.68;;;7.35;;
72060;SDS011;59925;52.136;5.420;2023-08-24T07:29:08;10.40;;;7.53;;
72060;SDS011;59925;52.136;5.420;2023-08-24T07:31:35;12.63;;;9.25;;
72060;SDS011;59925;52.136;5.420;2023-08-24T07:34:04;15.65;;;7.85;;
72060;SDS011;59925;52.136;5.420;2023-08-24T07:36:31;11.18;;;9.02;;
72060;SDS011;59925;52.136;5.420;2023-08-24T07:38:58;9.82;;;7.60;;
72060;SDS011;59925;52.136;5.420;2023-08-24T07:41:25;10.77;;;8.20;;
72060;SDS011;59925;52.136;5.420;2023-08-24T07:43:52;13.90;;;8.13;;
72060;SDS011;59925;52.136;5.420;2023-08-24T07:46:18;11.32;;;8.48;;
72060;SDS011;59925;52.136;5.420;2023-08-24T07:48:45;12.00;;;8.77;;
72060;SDS011;59925;52.136;5.420;2023-08-24T07:51:11;11.13;;;8.40;;
72060;SDS011;59925;52.136;5.420;2023-08-24T07:53:38;10.40;;;8.73;;
72060;SDS011;59925;52.136;5.420;2023-08-24T07:56:05;10.55;;;8.25;;
72060;SDS011;59925;52.136;5.420;2023-08-24T07:58:31;12.77;;;8.65;;
72060;SDS011;59925;52.136;5.420;2023-08-24T08:01:01;12.40;;;8.10;;
72060;SDS011;59925;52.136;5.420;2023-08-24T08:03:27;11.82;;;8.57;;
72060;SDS011;59925;52.136;5.420;2023-08-24T08:05:56;11.37;;;7.90;;
72060;SDS011;59925;52.136;5.420;2023-08-24T08:08:23;11.02;;;8.20;;
72060;SDS011;59925;52.136;5.420;2023-08-24T08:10:56;9.80;;;8.75;;
72060;SDS011;59925;52.136;5.420;2023-08-24T08:13:27;12.00;;;7.93;;
72060;SDS011;59925;52.136;5.420;2023-08-24T08:16:01;15.27;;;8.80;;
72060;SDS011;59925;52.136;5.420;2023-08-24T08:18:29;11.30;;;8.17;;
72060;SDS011;59925;52.136;5.420;2023-08-24T08:20:56;9.38;;;8.00;;
72060;SDS011;59925;52.136;5.420;2023-08-24T08:23:22;13.13;;;8.45;;
72060;SDS011;59925;52.136;5.420;2023-08-24T08:25:49;12.25;;;8.95;;
72060;SDS011;59925;52.136;5.420;2023-08-24T08:28:17;10.88;;;8.30;;
72060;SDS011;59925;52.136;5.420;2023-08-24T08:30:44;17.93;;;9.37;;
72060;SDS011;59925;52.136;5.420;2023-08-24T08:33:12;12.40;;;8.75;;
72060;SDS011;59925;52.136;5.420;2023-08-24T08:35:38;12.65;;;8.60;;
72060;SDS011;59925;52.136;5.420;2023-08-24T08:38:06;12.02;;;8.15;;
72060;SDS011;59925;52.136;5.420;2023-08-24T08:40:38;12.00;;;9.13;;
72060;SDS011;59925;52.136;5.420;2023-08-24T08:43:07;11.03;;;9.10;;
72060;SDS011;59925;52.136;5.420;2023-08-24T08:45:33;10.32;;;8.55;;
72060;SDS011;59925;52.136;5.420;2023-08-24T08:48:01;12.60;;;8.88;;
72060;SDS011;59925;52.136;5.420;2023-08-24T08:50:30;13.48;;;8.55;;
72060;SDS011;59925;52.136;5.420;2023-08-24T08:52:59;12.27;;;7.85;;
72060;SDS011;59925;52.136;5.420;2023-08-24T08:55:25;10.83;;;8.03;;
72060;SDS011;59925;52.136;5.420;2023-08-24T08:57:53;10.68;;;8.00;;
72060;SDS011;59925;52.136;5.420;2023-08-24T09:00:24;12.25;;;8.30;;
72060;SDS011;59925;52.136;5.420;2023-08-24T09:02:52;13.43;;;8.80;;
72060;SDS011;59925;52.136;5.420;2023-08-24T09:05:20;13.05;;;7.20;;
72060;SDS011;59925;52.136;5.420;2023-08-24T09:07:48;10.03;;;6.90;;
72060;SDS011;59925;52.136;5.420;2023-08-24T09:10:16;11.52;;;7.80;;
72060;SDS011;59925;52.136;5.420;2023-08-24T09:12:42;12.00;;;7.65;;
72060;SDS011;59925;52.136;5.420;2023-08-24T09:15:09;10.48;;;8.02;;
72060;SDS011;59925;52.136;5.420;2023-08-24T09:17:36;15.88;;;8.27;;
72060;SDS011;59925;52.136;5.420;2023-08-24T09:20:09;11.83;;;8.43;;
72060;SDS011;59925;52.136;5.420;2023-08-24T09:22:36;9.80;;;7.97;;
72060;SDS011;59925;52.136;5.420;2023-08-24T09:25:10;12.43;;;7.70;;
72060;SDS011;59925;52.136;5.420;2023-08-24T09:27:37;12.35;;;7.38;;
72060;SDS011;59925;52.136;5.420;2023-08-24T09:30:03;10.57;;;7.97;;
72060;SDS011;59925;52.136;5.420;2023-08-24T09:32:32;8.93;;;7.17;;
72060;SDS011;59925;52.136;5.420;2023-08-24T09:35:02;9.02;;;7.47;;
72060;SDS011;59925;52.136;5.420;2023-08-24T09:37:33;11.98;;;7.53;;
72060;SDS011;59925;52.136;5.420;2023-08-24T09:40:04;11.63;;;7.97;;
72060;SDS011;59925;52.136;5.420;2023-08-24T09:42:37;10.13;;;7.43;;
72060;SDS011;59925;52.136;5.420;2023-08-24T09:45:06;11.07;;;7.33;;
72060;SDS011;59925;52.136;5.420;2023-08-24T09:47:36;11.20;;;7.47;;
72060;SDS011;59925;52.136;5.420;2023-08-24T09:50:03;11.73;;;9.30;;
72060;SDS011;59925;52.136;5.420;2023-08-24T09:52:31;12.68;;;8.32;;
72060;SDS011;59925;52.136;5.420;2023-08-24T09:55:08;10.90;;;8.57;;
72060;SDS011;59925;52.136;5.420;2023-08-24T09:57:38;9.97;;;7.23;;
72060;SDS011;59925;52.136;5.420;2023-08-24T10:00:09;11.20;;;8.23;;
72060;SDS011;59925;52.136;5.420;2023-08-24T10:02:37;11.02;;;8.10;;
72060;SDS011;59925;52.136;5.420;2023-08-24T10:05:15;11.48;;;7.68;;
72060;SDS011;59925;52.136;5.420;2023-08-24T10:08:06;11.45;;;8.13;;
72060;SDS011;59925;52.136;5.420;2023-08-24T10:10:34;13.87;;;8.53;;
72060;SDS011;59925;52.136;5.420;2023-08-24T10:13:04;11.80;;;8.02;;
72060;SDS011;59925;52.136;5.420;2023-08-24T10:15:35;9.40;;;7.60;;
72060;SDS011;59925;52.136;5.420;2023-08-24T10:18:03;14.52;;;8.13;;
72060;SDS011;59925;52.136;5.420;2023-08-24T10:20:31;8.60;;;6.82;;
72060;SDS011;59925;52.136;5.420;2023-08-24T10:22:58;9.67;;;7.50;;
72060;SDS011;59925;52.136;5.420;2023-08-24T10:25:30;10.95;;;8.30;;
72060;SDS011;59925;52.136;5.420;2023-08-24T10:27:57;10.88;;;7.55;;
72060;SDS011;59925;52.136;5.420;2023-08-24T10:30:25;10.23;;;7.47;;
72060;SDS011;59925;52.136;5.420;2023-08-24T10:32:55;11.65;;;7.18;;
72060;SDS011;59925;52.136;5.420;2023-08-24T10:35:23;10.23;;;7.73;;
72060;SDS011;59925;52.136;5.420;2023-08-24T10:37:51;10.98;;;8.05;;
72060;SDS011;59925;52.136;5.420;2023-08-24T10:40:32;10.98;;;7.43;;
72060;SDS011;59925;52.136;5.420;2023-08-24T10:43:02;11.68;;;8.10;;
72060;SDS011;59925;52.136;5.420;2023-08-24T10:46:05;12.15;;;8.32;;
72060;SDS011;59925;52.136;5.420;2023-08-24T10:48:25;15.00;;;8.03;;
72060;SDS011;59925;52.136;5.420;2023-08-24T10:56:15;12.60;;;8.57;;
72060;SDS011;59925;52.136;5.420;2023-08-24T10:58:43;13.57;;;9.38;;
72060;SDS011;59925;52.136;5.420;2023-08-24T11:01:17;14.30;;;9.50;;
72060;SDS011;59925;52.136;5.420;2023-08-24T11:03:54;12.50;;;9.18;;
72060;SDS011;59925;52.136;5.420;2023-08-24T11:06:22;13.68;;;9.73;;
72060;SDS011;59925;52.136;5.420;2023-08-24T11:09:05;12.02;;;9.57;;
72060;SDS011;59925;52.136;5.420;2023-08-24T11:11:39;13.75;;;10.55;;
72060;SDS011;59925;52.136;5.420;2023-08-24T11:14:22;15.10;;;10.23;;
72060;SDS011;59925;52.136;5.420;2023-08-24T11:16:51;16.25;;;10.77;;
72060;SDS011;59925;52.136;5.420;2023-08-24T11:19:19;12.30;;;9.85;;
72060;SDS011;59925;52.136;5.420;2023-08-24T11:21:45;14.77;;;10.88;;
72060;SDS011;59925;52.136;5.420;2023-08-24T11:24:13;11.57;;;9.85;;
72060;SDS011;59925;52.136;5.420;2023-08-24T11:26:43;13.63;;;10.40;;
72060;SDS011;59925;52.136;5.420;2023-08-24T11:29:11;14.13;;;10.50;;
72060;SDS011;59925;52.136;5.420;2023-08-24T11:31:38;18.52;;;10.88;;
72060;SDS011;59925;52.136;5.420;2023-08-24T11:34:08;13.77;;;10.60;;
72060;SDS011;59925;52.136;5.420;2023-08-24T11:36:41;14.00;;;9.93;;
72060;SDS011;59925;52.136;5.420;2023-08-24T11:39:14;14.07;;;11.90;;
72060;SDS011;59925;52.136;5.420;2023-08-24T11:42:01;12.30;;;10.35;;
72060;SDS011;59925;52.136;5.420;2023-08-24T11:44:29;14.95;;;10.60;;
72060;SDS011;59925;52.136;5.420;2023-08-24T11:47:10;15.93;;;10.90;;
72060;SDS011;59925;52.136;5.420;2023-08-24T11:49:36;14.52;;;11.02;;
72060;SDS011;59925;52.136;5.420;2023-08-24T11:52:03;14.87;;;11.70;;
72060;SDS011;59925;52.136;5.420;2023-08-24T11:54:33;15.73;;;11.18;;
72060;SDS011;59925;52.136;5.420;2023-08-24T11:56:59;14.48;;;10.68;;
72060;SDS011;59925;52.136;5.420;2023-08-24T11:59:26;14.43;;;11.68;;
72060;SDS011;59925;52.136;5.420;2023-08-24T12:01:52;16.45;;;10.57;;
72060;SDS011;59925;52.136;5.420;2023-08-24T12:04:19;14.97;;;10.87;;
72060;SDS011;59925;52.136;5.420;2023-08-24T12:06:46;12.27;;;10.63;;
72060;SDS011;59925;52.136;5.420;2023-08-24T12:09:12;13.07;;;10.80;;
72060;SDS011;59925;52.136;5.420;2023-08-24T12:11:39;12.07;;;10.38;;
72060;SDS011;59925;52.136;5.420;2023-08-24T12:14:06;15.13;;;11.07;;
72060;SDS011;59925;52.136;5.420;2023-08-24T12:16:36;13.37;;;10.93;;
72060;SDS011;59925;52.136;5.420;2023-08-24T12:19:06;15.32;;;10.52;;
72060;SDS011;59925;52.136;5.420;2023-08-24T12:21:33;15.35;;;11.68;;
72060;SDS011;59925;52.136;5.420;2023-08-24T12:24:01;12.73;;;10.13;;
72060;SDS011;59925;52.136;5.420;2023-08-24T12:26:33;11.90;;;9.90;;
72060;SDS011;59925;52.136;5.420;2023-08-24T12:29:02;12.33;;;9.27;;
72060;SDS011;59925;52.136;5.420;2023-08-24T12:31:32;13.40;;;10.77;;
72060;SDS011;59925;52.136;5.420;2023-08-24T12:34:08;12.65;;;10.60;;
72060;SDS011;59925;52.136;5.420;2023-08-24T12:36:36;12.43;;;10.95;;
72060;SDS011;59925;52.136;5.420;2023-08-24T12:39:07;12.73;;;11.25;;
72060;SDS011;59925;52.136;5.420;2023-08-24T12:41:36;17.57;;;13.03;;
72060;SDS011;59925;52.136;5.420;2023-08-24T12:44:03;13.75;;;11.38;;
72060;SDS011;59925;52.136;5.420;2023-08-24T12:46:32;14.60;;;11.23;;
72060;SDS011;59925;52.136;5.420;2023-08-24T12:48:59;17.85;;;12.00;;
72060;SDS011;59925;52.136;5.420;2023-08-24T12:51:26;17.83;;;10.95;;
72060;SDS011;59925;52.136;5.420;2023-08-24T12:53:53;13.23;;;11.73;;
72060;SDS011;59925;52.136;5.420;2023-08-24T12:56:19;14.93;;;11.45;;
72060;SDS011;59925;52.136;5.420;2023-08-24T12:58:46;17.90;;;11.85;;
72060;SDS011;59925;52.136;5.420;2023-08-24T13:01:12;13.68;;;11.90;;
72060;SDS011;59925;52.136;5.420;2023-08-24T13:03:39;16.55;;;11.18;;
72060;SDS011;59925;52.136;5.420;2023-08-24T13:06:06;17.70;;;11.37;;
72060;SDS011;59925;52.136;5.420;2023-08-24T13:08:49;14.95;;;11.00;;
72060;SDS011;59925;52.136;5.420;2023-08-24T13:11:16;16.33;;;10.82;;
72060;SDS011;59925;52.136;5.420;2023-08-24T13:13:43;17.08;;;11.13;;
72060;SDS011;59925;52.136;5.420;2023-08-24T13:16:11;13.68;;;10.68;;
72060;SDS011;59925;52.136;5.420;2023-08-24T13:18:38;12.80;;;10.60;;
72060;SDS011;59925;52.136;5.420;2023-08-24T13:21:04;13.65;;;10.88;;
72060;SDS011;59925;52.136;5.420;2023-08-24T13:23:31;16.15;;;11.63;;
72060;SDS011;59925;52.136;5.420;2023-08-24T13:25:59;13.30;;;10.20;;
72060;SDS011;59925;52.136;5.420;2023-08-24T13:28:26;14.55;;;10.82;;
72060;SDS011;59925;52.136;5.420;2023-08-24T13:30:54;14.27;;;12.77;;
72060;SDS011;59925;52.136;5.420;2023-08-24T13:33:21;15.70;;;11.32;;
72060;SDS011;59925;52.136;5.420;2023-08-24T13:35:48;12.65;;;10.95;;
72060;SDS011;59925;52.136;5.420;2023-08-24T13:38:15;13.05;;;11.38;;
72060;SDS011;59925;52.136;5.420;2023-08-24T13:40:42;15.10;;;12.07;;
72060;SDS011;59925;52.136;5.420;2023-08-24T13:43:08;15.57;;;12.20;;
72060;SDS011;59925;52.136;5.420;2023-08-24T13:45:34;15.43;;;12.00;;
72060;SDS011;59925;52.136;5.420;2023-08-24T13:48:01;15.55;;;13.00;;
72060;SDS011;59925;52.136;5.420;2023-08-24T13:50:28;14.07;;;12.07;;
72060;SDS011;59925;52.136;5.420;2023-08-24T13:52:55;17.08;;;12.73;;
72060;SDS011;59925;52.136;5.420;2023-08-24T13:55:22;15.93;;;12.33;;
72060;SDS011;59925;52.136;5.420;2023-08-24T13:57:48;15.65;;;11.02;;
72060;SDS011;59925;52.136;5.420;2023-08-24T14:00:16;17.55;;;12.95;;
72060;SDS011;59925;52.136;5.420;2023-08-24T14:02:42;16.67;;;12.93;;
72060;SDS011;59925;52.136;5.420;2023-08-24T14:05:11;21.02;;;15.07;;
72060;SDS011;59925;52.136;5.420;2023-08-24T14:07:39;14.70;;;13.07;;
72060;SDS011;59925;52.136;5.420;2023-08-24T14:10:05;16.58;;;13.80;;
72060;SDS011;59925;52.136;5.420;2023-08-24T14:12:34;17.55;;;14.15;;
72060;SDS011;59925;52.136;5.420;2023-08-24T14:15:01;20.52;;;16.00;;
72060;SDS011;59925;52.136;5.420;2023-08-24T14:17:27;20.90;;;15.20;;
72060;SDS011;59925;52.136;5.420;2023-08-24T14:19:54;18.10;;;14.80;;
72060;SDS011;59925;52.136;5.420;2023-08-24T14:22:20;19.33;;;14.98;;
72060;SDS011;59925;52.136;5.420;2023-08-24T14:24:47;18.58;;;15.27;;
72060;SDS011;59925;52.136;5.420;2023-08-24T14:27:13;22.13;;;17.90;;
72060;SDS011;59925;52.136;5.420;2023-08-24T14:29:40;21.60;;;17.55;;
72060;SDS011;59925;52.136;5.420;2023-08-24T14:32:06;23.20;;;18.57;;
72060;SDS011;59925;52.136;5.420;2023-08-24T14:34:33;19.80;;;17.80;;
72060;SDS011;59925;52.136;5.420;2023-08-24T14:36:59;20.60;;;16.92;;
72060;SDS011;59925;52.136;5.420;2023-08-24T14:39:26;21.27;;;17.50;;
72060;SDS011;59925;52.136;5.420;2023-08-24T14:41:52;19.85;;;17.00;;
72060;SDS011;59925;52.136;5.420;2023-08-24T14:44:19;20.83;;;16.23;;
72060;SDS011;59925;52.136;5.420;2023-08-24T14:46:46;21.38;;;16.17;;
72060;SDS011;59925;52.136;5.420;2023-08-24T14:49:13;19.30;;;15.95;;
72060;SDS011;59925;52.136;5.420;2023-08-24T14:51:45;19.02;;;14.85;;